createdAt,value
2023-04-09T00:01:33.518Z,8.30
2023-04-09T00:04:00.940Z,8.30
2023-04-09T00:06:27.699Z,8.30
2023-04-09T00:08:54.389Z,8.30
2023-04-09T00:11:21.533Z,8.30
2023-04-09T00:13:48.098Z,8.30
2023-04-09T00:16:14.705Z,8.50
2023-04-09T00:18:41.705Z,8.30
2023-04-09T00:21:08.692Z,8.30
2023-04-09T00:23:36.002Z,8.30
2023-04-09T00:26:02.725Z,8.20
2023-04-09T00:28:29.304Z,8.20
2023-04-09T00:30:55.959Z,8.20
2023-04-09T00:33:22.525Z,8.20
2023-04-09T00:35:49.164Z,8.20
2023-04-09T00:38:16.335Z,8.20
2023-04-09T00:40:42.946Z,5.40
2023-04-09T00:43:09.628Z,8.20
2023-04-09T00:45:36.513Z,8.20
2023-04-09T00:48:03.194Z,8.20
2023-04-09T00:50:29.766Z,8.20
2023-04-09T00:52:56.406Z,8.20
2023-04-09T00:55:23.489Z,8.10
2023-04-09T00:57:50.257Z,8.10
2023-04-09T01:00:16.840Z,8.10
2023-04-09T01:02:43.879Z,8.10
2023-04-09T01:05:11.258Z,8.10
2023-04-09T01:07:37.845Z,8.10
2023-04-09T01:10:04.383Z,8.00
2023-04-09T01:12:41.724Z,8.00
2023-04-09T01:15:15.071Z,8.00
2023-04-09T01:17:44.364Z,8.00
2023-04-09T01:20:18.890Z,8.00
2023-04-09T01:23:08.876Z,8.00
2023-04-09T01:25:45.514Z,7.90
2023-04-09T01:28:18.891Z,7.90
2023-04-09T01:30:48.953Z,7.90
2023-04-09T01:33:16.430Z,7.90
2023-04-09T01:35:43.682Z,8.50
2023-04-09T01:38:11.203Z,7.90
2023-04-09T01:40:38.128Z,8.20
2023-04-09T01:43:06.382Z,7.90
2023-04-09T01:45:33.030Z,7.80
2023-04-09T01:48:00.008Z,7.90
2023-04-09T01:50:27.112Z,7.80
2023-04-09T01:52:53.805Z,7.90
2023-04-09T01:55:20.339Z,7.80
2023-04-09T01:57:46.885Z,7.80
2023-04-09T02:00:13.835Z,7.90
2023-04-09T02:02:45.398Z,7.90
2023-04-09T02:05:15.365Z,7.90
2023-04-09T02:07:46.682Z,7.90
2023-04-09T02:10:13.521Z,7.80
2023-04-09T02:12:42.740Z,8.80
2023-04-09T02:15:09.479Z,7.80
2023-04-09T02:17:36.181Z,7.80
2023-04-09T02:20:03.023Z,7.80
2023-04-09T02:22:30.020Z,7.80
2023-04-09T02:24:56.634Z,7.80
2023-04-09T02:27:23.245Z,7.80
2023-04-09T02:29:50.471Z,7.70
2023-04-09T02:32:17.036Z,7.70
2023-04-09T02:34:44.140Z,7.70
2023-04-09T02:37:10.815Z,7.60
2023-04-09T02:39:37.600Z,7.60
2023-04-09T02:42:04.255Z,7.60
2023-04-09T02:44:30.813Z,7.70
2023-04-09T02:46:57.730Z,7.50
2023-04-09T02:49:24.355Z,7.50
2023-04-09T02:51:51.078Z,7.40
2023-04-09T02:54:17.719Z,7.30
2023-04-09T02:56:44.330Z,7.20
2023-04-09T02:59:11.105Z,7.20
2023-04-09T03:01:37.828Z,7.00
2023-04-09T03:04:04.548Z,7.00
2023-04-09T03:06:31.290Z,6.90
2023-04-09T03:08:57.840Z,6.70
2023-04-09T03:11:24.455Z,6.70
2023-04-09T03:13:51.010Z,6.60
2023-04-09T03:16:17.704Z,6.50
2023-04-09T03:18:44.351Z,6.40
2023-04-09T03:21:12.259Z,6.40
2023-04-09T03:23:41.037Z,6.40
2023-04-09T03:26:07.843Z,6.30
2023-04-09T03:28:34.550Z,6.20
2023-04-09T03:31:01.224Z,9.00
2023-04-09T03:33:27.830Z,6.30
2023-04-09T03:35:54.417Z,6.00
2023-04-09T03:38:21.191Z,6.10
2023-04-09T03:40:48.065Z,5.90
2023-04-09T03:43:14.745Z,6.10
2023-04-09T03:45:41.337Z,5.90
2023-04-09T03:48:07.957Z,5.80
2023-04-09T03:50:41.508Z,7.80
2023-04-09T03:53:08.177Z,5.80
2023-04-09T03:55:34.952Z,5.70
2023-04-09T03:58:01.609Z,5.70
2023-04-09T04:00:28.214Z,6.30
2023-04-09T04:02:54.985Z,5.60
2023-04-09T04:05:23.016Z,5.60
2023-04-09T04:07:49.788Z,5.50
2023-04-09T04:10:16.367Z,7.80
2023-04-09T04:12:42.889Z,5.40
2023-04-09T04:15:09.753Z,5.30
2023-04-09T04:17:36.325Z,5.40
2023-04-09T04:20:03.102Z,5.30
2023-04-09T04:22:29.735Z,5.30
2023-04-09T04:24:56.307Z,6.10
2023-04-09T04:27:22.954Z,5.20
2023-04-09T04:32:16.482Z,5.10
2023-04-09T04:34:43.034Z,5.10
2023-04-09T04:37:09.640Z,5.00
2023-04-09T04:39:36.271Z,5.00
2023-04-09T04:42:02.870Z,5.00
2023-04-09T04:44:29.400Z,5.10
2023-04-09T04:46:56.159Z,5.00
2023-04-09T04:49:22.913Z,4.90
2023-04-09T04:51:49.472Z,4.90
2023-04-09T04:54:16.380Z,4.90
2023-04-09T04:56:42.939Z,4.90
2023-04-09T04:59:09.540Z,5.00
2023-04-09T05:01:36.267Z,5.00
2023-04-09T05:04:04.142Z,5.00
2023-04-09T05:06:31.557Z,5.00
2023-04-09T05:08:58.205Z,5.00
2023-04-09T05:11:25.482Z,5.00
2023-04-09T05:13:52.076Z,4.90
2023-04-09T05:16:19.865Z,4.90
2023-04-09T05:18:47.071Z,4.80
2023-04-09T05:21:13.650Z,4.90
2023-04-09T05:23:40.198Z,4.90
2023-04-09T05:26:06.925Z,5.00
2023-04-09T05:28:33.526Z,5.30
2023-04-09T05:31:00.313Z,5.70
2023-04-09T05:33:27.441Z,5.50
2023-04-09T05:35:54.018Z,5.70
2023-04-09T05:38:20.641Z,5.90
2023-04-09T05:40:48.901Z,6.20
2023-04-09T05:43:15.542Z,6.90
2023-04-09T05:45:42.094Z,6.70
2023-04-09T05:48:08.941Z,6.80
2023-04-09T05:50:47.556Z,7.00
2023-04-09T05:53:20.453Z,7.40
2023-04-09T05:55:49.082Z,7.70
2023-04-09T05:58:21.757Z,7.10
2023-04-09T06:00:48.393Z,7.90
2023-04-09T06:03:15.044Z,8.20
2023-04-09T06:05:41.695Z,8.50
2023-04-09T06:08:08.385Z,8.70
2023-04-09T06:10:34.932Z,8.90
2023-04-09T06:13:01.550Z,9.00
2023-04-09T06:15:28.262Z,9.10
2023-04-09T06:17:57.408Z,9.30
2023-04-09T06:20:25.461Z,9.70
2023-04-09T06:22:51.962Z,10.00
2023-04-09T06:25:18.529Z,10.40
2023-04-09T06:27:45.069Z,10.90
2023-04-09T06:30:11.858Z,11.10
2023-04-09T06:32:47.274Z,11.70
2023-04-09T06:35:20.622Z,12.00
2023-04-09T06:37:47.273Z,13.30
2023-04-09T06:40:14.396Z,15.10
2023-04-09T06:42:41.016Z,14.90
2023-04-09T06:45:08.605Z,14.20
2023-04-09T06:47:36.296Z,13.70
2023-04-09T06:50:03.219Z,13.60
2023-04-09T06:52:29.918Z,13.70
2023-04-09T06:54:56.446Z,14.20
2023-04-09T06:57:23.022Z,14.30
2023-04-09T06:59:49.520Z,14.50
2023-04-09T07:02:16.400Z,14.80
2023-04-09T07:04:43.042Z,15.50
2023-04-09T07:07:09.669Z,16.40
2023-04-09T07:09:36.477Z,16.90
2023-04-09T07:12:03.038Z,17.10
2023-04-09T07:14:30.837Z,17.50
2023-04-09T07:16:57.359Z,17.80
2023-04-09T07:19:23.931Z,18.00
2023-04-09T07:21:51.659Z,18.30
2023-04-09T07:24:18.179Z,18.50
2023-04-09T07:26:44.772Z,18.80
2023-04-09T07:29:11.487Z,18.90
2023-04-09T07:31:38.116Z,19.20
2023-04-09T07:34:04.880Z,19.60
2023-04-09T07:36:31.804Z,19.60
2023-04-09T07:38:58.732Z,20.00
2023-04-09T07:41:25.494Z,20.40
2023-04-09T07:43:52.065Z,20.50
2023-04-09T07:46:19.843Z,20.60
2023-04-09T07:48:48.303Z,21.20
2023-04-09T07:51:15.281Z,21.20
2023-04-09T07:53:41.869Z,21.90
2023-04-09T07:56:08.410Z,21.70
2023-04-09T07:58:35.257Z,21.70
2023-04-09T08:01:01.788Z,22.10
2023-04-09T08:03:28.642Z,22.10
2023-04-09T08:05:55.312Z,21.70
2023-04-09T08:08:21.973Z,21.60
2023-04-09T08:10:48.924Z,21.30
2023-04-09T08:13:15.468Z,21.10
2023-04-09T08:15:42.043Z,21.40
2023-04-09T08:18:09.308Z,21.40
2023-04-09T08:20:36.036Z,21.80
2023-04-09T08:23:02.879Z,21.80
2023-04-09T08:25:29.432Z,22.40
2023-04-09T08:27:55.972Z,22.40
2023-04-09T08:30:22.649Z,23.20
2023-04-09T08:32:49.868Z,22.90
2023-04-09T08:35:16.607Z,23.40
2023-04-09T08:37:43.519Z,23.80
2023-04-09T08:40:11.581Z,24.20
2023-04-09T08:42:45.103Z,24.60
2023-04-09T08:45:12.734Z,25.20
2023-04-09T08:47:41.711Z,25.00
2023-04-09T08:50:08.783Z,25.80
2023-04-09T08:52:36.095Z,26.40
2023-04-09T08:55:02.851Z,26.70
2023-04-09T08:57:30.040Z,27.30
2023-04-09T08:59:56.678Z,27.60
2023-04-09T09:02:24.206Z,28.00
2023-04-09T09:04:50.957Z,28.00
2023-04-09T09:07:17.997Z,27.20
2023-04-09T09:09:54.562Z,26.20
2023-04-09T09:12:36.620Z,25.00
2023-04-09T09:15:03.433Z,25.50
2023-04-09T09:17:30.075Z,26.00
2023-04-09T09:19:57.020Z,26.70
2023-04-09T09:22:24.632Z,27.50
2023-04-09T09:24:52.310Z,25.80
2023-04-09T09:27:32.608Z,28.20
2023-04-09T09:29:59.463Z,28.40
2023-04-09T09:32:26.030Z,27.90
2023-04-09T09:35:03.272Z,27.50
2023-04-09T09:37:30.378Z,26.90
2023-04-09T09:39:58.427Z,25.60
2023-04-09T09:42:26.128Z,24.80
2023-04-09T09:44:53.542Z,25.70
2023-04-09T09:47:20.690Z,26.10
2023-04-09T09:49:48.305Z,25.30
2023-04-09T09:52:15.198Z,25.10
2023-04-09T09:54:43.291Z,25.40
2023-04-09T09:57:10.832Z,25.20
2023-04-09T09:59:38.824Z,24.40
2023-04-09T10:02:06.569Z,23.30
2023-04-09T10:04:34.874Z,22.10
2023-04-09T10:07:04.015Z,21.20
2023-04-09T10:09:31.240Z,21.80
2023-04-09T10:11:59.910Z,23.20
2023-04-09T10:14:28.764Z,24.20
2023-04-09T10:16:55.426Z,24.20
2023-04-09T10:19:22.317Z,24.90
2023-04-09T10:21:54.683Z,24.80
2023-04-09T10:24:21.870Z,24.90
2023-04-09T10:26:48.784Z,25.40
2023-04-09T10:29:16.324Z,26.80
2023-04-09T10:31:52.183Z,27.90
2023-04-09T10:34:20.914Z,28.30
2023-04-09T10:36:55.786Z,28.70
2023-04-09T10:39:26.316Z,29.20
2023-04-09T10:41:53.651Z,29.70
2023-04-09T10:44:21.473Z,30.10
2023-04-09T10:46:48.131Z,29.20
2023-04-09T10:49:18.940Z,28.40
2023-04-09T10:52:13.509Z,28.20
2023-04-09T10:54:43.830Z,26.80
2023-04-09T10:57:11.392Z,26.00
2023-04-09T10:59:40.939Z,26.10
2023-04-09T11:02:08.903Z,26.60
2023-04-09T11:04:41.605Z,25.90
2023-04-09T11:07:08.873Z,24.60
2023-04-09T11:09:35.986Z,23.50
2023-04-09T11:12:03.659Z,22.60
2023-04-09T11:14:30.805Z,22.40
2023-04-09T11:16:57.439Z,21.90
2023-04-09T11:19:23.972Z,22.40
2023-04-09T11:21:51.048Z,23.10
2023-04-09T11:24:18.637Z,23.60
2023-04-09T11:26:45.867Z,24.20
2023-04-09T11:29:12.929Z,25.00
2023-04-09T11:31:39.553Z,25.50
2023-04-09T11:34:09.909Z,26.20
2023-04-09T11:36:36.404Z,26.70
2023-04-09T11:39:03.215Z,26.20
2023-04-09T11:41:36.992Z,25.80
2023-04-09T11:44:04.403Z,26.20
2023-04-09T11:46:33.049Z,26.90
2023-04-09T11:48:59.714Z,26.70
2023-04-09T11:51:27.356Z,26.90
2023-04-09T11:53:53.959Z,26.90
2023-04-09T11:56:20.637Z,26.90
2023-04-09T11:58:47.962Z,26.60
2023-04-09T12:01:14.941Z,26.80
2023-04-09T12:03:41.765Z,27.10
2023-04-09T12:06:09.274Z,27.10
2023-04-09T12:08:36.328Z,26.80
2023-04-09T12:11:13.447Z,27.10
2023-04-09T12:13:43.258Z,27.00
2023-04-09T12:16:13.277Z,27.70
2023-04-09T12:18:40.276Z,28.80
2023-04-09T12:21:06.900Z,29.60
2023-04-09T12:23:33.541Z,29.60
2023-04-09T12:26:03.116Z,29.60
2023-04-09T12:28:29.958Z,29.60
2023-04-09T12:30:58.231Z,29.20
2023-04-09T12:33:24.900Z,29.40
2023-04-09T12:35:51.628Z,29.10
2023-04-09T12:38:18.198Z,29.40
2023-04-09T12:40:45.737Z,29.60
2023-04-09T12:43:12.233Z,29.10
2023-04-09T12:45:39.152Z,27.70
2023-04-09T12:48:05.876Z,27.30
2023-04-09T12:50:33.264Z,27.70
2023-04-09T12:52:59.905Z,28.30
2023-04-09T12:55:26.578Z,28.40
2023-04-09T12:57:53.107Z,27.60
2023-04-09T13:00:19.662Z,26.70
2023-04-09T13:02:46.494Z,25.90
2023-04-09T13:05:13.273Z,26.20
2023-04-09T13:07:42.240Z,25.90
2023-04-09T13:10:09.984Z,25.40
2023-04-09T13:12:36.605Z,24.60
2023-04-09T13:15:03.840Z,23.70
2023-04-09T13:17:30.527Z,22.90
2023-04-09T13:19:57.122Z,23.80
2023-04-09T13:22:23.694Z,24.40
2023-04-09T13:24:50.215Z,24.30
2023-04-09T13:27:16.976Z,24.00
2023-04-09T13:29:43.564Z,23.50
2023-04-09T13:32:11.018Z,23.10
2023-04-09T13:34:38.507Z,23.00
2023-04-09T13:37:05.349Z,23.30
2023-04-09T13:39:33.055Z,23.50
2023-04-09T13:42:00.220Z,23.70
2023-04-09T13:44:27.515Z,24.10
2023-04-09T13:46:54.108Z,23.90
2023-04-09T13:49:21.294Z,22.60
2023-04-09T13:51:48.908Z,21.30
2023-04-09T13:54:15.486Z,20.60
2023-04-09T13:56:43.333Z,20.30
2023-04-09T13:59:09.863Z,20.10
2023-04-09T14:01:37.361Z,20.00
2023-04-09T14:04:04.073Z,19.70
2023-04-09T14:06:31.439Z,19.50
2023-04-09T14:08:58.016Z,19.10
2023-04-09T14:11:27.593Z,18.90
2023-04-09T14:13:54.906Z,18.70
2023-04-09T14:16:22.448Z,18.80
2023-04-09T14:18:49.081Z,18.70
2023-04-09T14:21:15.753Z,18.40
2023-04-09T14:23:42.255Z,18.30
2023-04-09T14:26:09.005Z,18.20
2023-04-09T14:28:35.589Z,18.00
2023-04-09T14:31:02.218Z,18.20
2023-04-09T14:33:28.870Z,18.80
2023-04-09T14:35:55.539Z,19.20
2023-04-09T14:38:23.970Z,19.70
2023-04-09T14:40:50.868Z,19.80
2023-04-09T14:43:17.402Z,20.20
2023-04-09T14:45:44.129Z,20.60
2023-04-09T14:48:10.927Z,20.60
2023-04-09T14:50:37.914Z,20.70
2023-04-09T14:53:04.426Z,20.70
2023-04-09T14:55:31.058Z,20.70
2023-04-09T14:57:58.568Z,20.40
2023-04-09T15:00:25.424Z,20.10
2023-04-09T15:02:52.164Z,20.20
2023-04-09T15:05:19.354Z,20.40
2023-04-09T15:07:45.902Z,20.70
2023-04-09T15:10:12.485Z,20.90
2023-04-09T15:12:39.072Z,21.30
2023-04-09T15:15:07.722Z,21.50
2023-04-09T15:17:35.461Z,21.60
2023-04-09T15:20:02.400Z,21.50
2023-04-09T15:22:28.948Z,21.50
2023-04-09T15:24:55.601Z,21.40
2023-04-09T15:27:22.160Z,21.00
2023-04-09T15:29:48.752Z,20.80
2023-04-09T15:32:15.356Z,20.70
2023-04-09T15:34:42.069Z,20.60
2023-04-09T15:37:08.611Z,20.40
2023-04-09T15:39:35.276Z,20.30
2023-04-09T15:42:02.422Z,20.30
2023-04-09T15:44:29.039Z,20.00
2023-04-09T15:46:56.038Z,20.00
2023-04-09T15:49:22.856Z,19.80
2023-04-09T15:51:49.424Z,19.80
2023-04-09T15:54:15.991Z,19.80
2023-04-09T15:56:43.100Z,19.60
2023-04-09T15:59:09.726Z,19.50
2023-04-09T16:01:36.635Z,19.40
2023-04-09T16:04:04.379Z,19.30
2023-04-09T16:06:31.281Z,19.20
2023-04-09T16:08:57.933Z,19.30
2023-04-09T16:11:25.307Z,19.30
2023-04-09T16:13:52.294Z,19.20
2023-04-09T16:16:19.114Z,19.10
2023-04-09T16:18:45.945Z,19.00
2023-04-09T16:21:12.718Z,19.00
2023-04-09T16:23:39.653Z,18.90
2023-04-09T16:26:06.346Z,18.60
2023-04-09T16:28:34.503Z,18.30
2023-04-09T16:31:01.102Z,18.20
2023-04-09T16:33:27.668Z,18.00
2023-04-09T16:35:54.236Z,17.80
2023-04-09T16:38:20.927Z,19.60
2023-04-09T16:40:47.468Z,17.40
2023-04-09T16:43:14.027Z,17.20
2023-04-09T16:45:40.668Z,16.90
2023-04-09T16:48:12.022Z,16.60
2023-04-09T16:50:40.514Z,16.40
2023-04-09T16:53:07.546Z,16.40
2023-04-09T16:55:34.493Z,16.30
2023-04-09T16:58:01.010Z,16.30
2023-04-09T17:00:27.708Z,16.20
2023-04-09T17:02:55.690Z,16.20
2023-04-09T17:05:22.911Z,16.10
2023-04-09T17:07:49.426Z,16.00
2023-04-09T17:10:16.154Z,15.90
2023-04-09T17:12:42.681Z,16.00
2023-04-09T17:15:10.582Z,15.80
2023-04-09T17:17:38.010Z,15.70
2023-04-09T17:20:04.947Z,15.90
2023-04-09T17:22:31.511Z,15.70
2023-04-09T17:24:58.063Z,15.70
2023-04-09T17:27:24.596Z,15.70
2023-04-09T17:29:51.689Z,15.60
2023-04-09T17:32:18.734Z,15.40
2023-04-09T17:34:47.524Z,15.20
2023-04-09T17:37:14.045Z,14.90
2023-04-09T17:39:41.574Z,14.50
2023-04-09T17:42:08.271Z,14.40
2023-04-09T17:44:35.427Z,14.20
2023-04-09T17:47:06.554Z,14.20
2023-04-09T17:49:33.468Z,14.00
2023-04-09T17:52:00.528Z,13.90
2023-04-09T17:54:31.631Z,13.70
2023-04-09T17:56:58.546Z,13.60
2023-04-09T17:59:26.181Z,13.40
2023-04-09T18:01:54.967Z,13.30
2023-04-09T18:04:23.647Z,13.10
2023-04-09T18:06:50.472Z,13.00
2023-04-09T18:11:44.718Z,12.90
2023-04-09T18:14:11.302Z,12.80
2023-04-09T18:21:32.006Z,12.60
2023-04-09T18:23:58.982Z,12.60
2023-04-09T18:26:25.705Z,12.50
2023-04-09T18:28:52.473Z,12.40
2023-04-09T18:31:19.291Z,12.40
2023-04-09T18:33:45.875Z,12.30
2023-04-09T18:36:12.444Z,12.30
2023-04-09T18:38:39.476Z,12.10
2023-04-09T18:43:33.777Z,12.10
2023-04-09T18:46:00.359Z,12.00
2023-04-09T18:50:54.074Z,12.00
2023-04-09T18:53:20.690Z,12.00
2023-04-09T18:55:47.260Z,11.80
2023-04-09T18:58:15.006Z,11.70
2023-04-09T19:00:42.285Z,11.70
2023-04-09T19:03:09.684Z,11.70
2023-04-09T19:05:36.547Z,13.70
2023-04-09T19:08:04.225Z,11.40
2023-04-09T19:10:32.889Z,11.50
2023-04-09T19:12:59.433Z,12.40
2023-04-09T19:15:26.728Z,11.30
2023-04-09T19:17:53.651Z,11.30
2023-04-09T19:20:20.406Z,11.20
2023-04-09T19:22:50.423Z,11.20
2023-04-09T19:25:17.444Z,11.10
2023-04-09T19:27:44.384Z,11.10
2023-04-09T19:30:11.411Z,11.00
2023-04-09T19:32:38.210Z,10.90
2023-04-09T19:35:05.483Z,10.80
2023-04-09T19:37:32.122Z,10.80
2023-04-09T19:40:02.427Z,10.60
2023-04-09T19:42:29.117Z,10.70
2023-04-09T19:44:55.644Z,12.30
2023-04-09T19:47:22.172Z,10.60
2023-04-09T19:49:49.110Z,10.60
2023-04-09T19:52:15.705Z,10.70
2023-04-09T19:54:42.467Z,10.80
2023-04-09T19:57:08.983Z,10.50
2023-04-09T19:59:39.748Z,10.40
2023-04-09T20:02:07.273Z,10.30
2023-04-09T20:04:35.454Z,10.80
2023-04-09T20:07:02.062Z,10.30
2023-04-09T20:09:29.059Z,10.20
2023-04-09T20:11:55.699Z,10.00
2023-04-09T20:14:22.221Z,9.90
2023-04-09T20:16:48.797Z,9.90
2023-04-09T20:19:15.517Z,9.70
2023-04-09T20:21:43.491Z,9.60
2023-04-09T20:24:10.319Z,9.50
2023-04-09T20:26:36.929Z,9.40
2023-04-09T20:29:03.463Z,9.40
2023-04-09T20:31:30.913Z,9.70
2023-04-09T20:33:57.959Z,9.20
2023-04-09T20:36:24.612Z,9.20
2023-04-09T20:38:51.739Z,9.20
2023-04-09T20:41:18.485Z,9.10
2023-04-09T20:43:45.498Z,9.10
2023-04-09T20:46:12.405Z,9.10
2023-04-09T20:48:39.334Z,9.10
2023-04-09T20:51:12.271Z,9.10
2023-04-09T20:53:38.948Z,9.00
2023-04-09T20:56:06.100Z,9.10
2023-04-09T20:58:33.387Z,9.10
2023-04-09T21:01:07.383Z,9.10
2023-04-09T21:03:35.018Z,9.00
2023-04-09T21:06:02.125Z,8.90
2023-04-09T21:08:29.212Z,8.90
2023-04-09T21:10:56.081Z,8.80
2023-04-09T21:13:23.228Z,8.80
2023-04-09T21:15:49.903Z,8.80
2023-04-09T21:18:17.059Z,8.80
2023-04-09T21:20:45.399Z,8.80
2023-04-09T21:23:12.777Z,8.70
2023-04-09T21:25:39.473Z,8.70
2023-04-09T21:28:07.819Z,8.50
2023-04-09T21:30:35.050Z,8.50
2023-04-09T21:33:02.306Z,8.50
2023-04-09T21:35:29.024Z,8.40
2023-04-09T21:37:55.643Z,8.30
2023-04-09T21:40:23.153Z,8.30
2023-04-09T21:42:50.064Z,8.30
2023-04-09T21:45:18.793Z,8.50
2023-04-09T21:47:46.081Z,8.20
2023-04-09T21:50:13.775Z,8.20
2023-04-09T21:52:40.513Z,8.20
2023-04-09T21:55:07.844Z,8.10
2023-04-09T21:57:34.444Z,8.10
2023-04-09T22:00:02.038Z,8.00
2023-04-09T22:02:28.944Z,8.00
2023-04-09T22:04:55.772Z,8.00
2023-04-09T22:07:22.661Z,7.90
2023-04-09T22:09:49.187Z,7.90
2023-04-09T22:12:15.786Z,7.90
2023-04-09T22:14:42.420Z,7.90
2023-04-09T22:17:09.099Z,7.80
2023-04-09T22:19:35.643Z,7.80
2023-04-09T22:22:02.248Z,7.70
2023-04-09T22:24:30.390Z,7.70
2023-04-09T22:26:59.014Z,7.60
2023-04-09T22:29:26.281Z,7.60
2023-04-09T22:31:53.013Z,7.50
2023-04-09T22:34:21.699Z,7.50
2023-04-09T22:36:48.990Z,7.40
2023-04-09T22:39:15.762Z,7.50
2023-04-09T22:41:42.713Z,7.40
2023-04-09T22:46:36.631Z,7.30
2023-04-09T22:49:05.329Z,7.30
2023-04-09T22:54:01.885Z,7.30
2023-04-09T22:58:55.897Z,7.20
2023-04-09T23:01:23.225Z,7.80
2023-04-09T23:03:50.333Z,7.10
2023-04-09T23:06:17.139Z,7.10
2023-04-09T23:08:44.033Z,7.00
2023-04-09T23:11:10.847Z,7.60
2023-04-09T23:13:37.820Z,6.90
2023-04-09T23:16:06.395Z,6.90
2023-04-09T23:18:33.575Z,6.80
2023-04-09T23:28:21.749Z,6.70
2023-04-09T23:30:48.369Z,6.60
2023-04-09T23:33:14.931Z,6.50
2023-04-09T23:35:41.919Z,6.90
2023-04-09T23:45:29.704Z,6.60
2023-04-09T23:47:57.554Z,6.50
2023-04-09T23:50:24.548Z,6.40
2023-04-09T23:52:51.708Z,6.40
2023-04-09T23:55:18.840Z,6.30
2023-04-09T23:57:45.521Z,6.30
